Escanaba, MI (49829)

4:46 PM EDT on August 28, 2016 (GMT -0400)
Hurley Marine Lake Side Weather | | Change Station

Elev 607 ft 45.73 °N, 87.06 °W | Updated 10 seconds ago

Clear
Clear
74.2 °F
Feels Like 75 °F
N
1.0
Wind Variable Wind from ESE
Gusts 11.0 mph

Today
High -- | Low -- °F
--% Chance of Precip.
Yesterday
High -- | Low -- °F
Precip. -- in
Pressure 30.25 in
Visibility 10.0 miles
Clouds Clear
Heat Index 75 °F
Dew Point 66 °F
Humidity 75%
Rainfall 0.00 in
Snow Depth Not available.
7:05 AM 8:32 PM
Waning Crescent, 13% visible
METAR KESC 281956Z AUTO 19011KT 10SM CLR 23/18 A3018 RMK AO2 SLP241 T02280178
Pressure 30.25 in
Visibility 10.0 miles
Clouds Clear
Heat Index 75 °F
Dew Point 66 °F
Humidity 75%
Rainfall 0.00 in
Snow Depth Not available.
7:05 AM 8:32 PM
Waning Crescent, 13% visible
METAR KESC 281956Z AUTO 19011KT 10SM CLR 23/18 A3018 RMK AO2 SLP241 T02280178

10-Day Weather Forecast

Almanac

Astronomy

Aug. 28, 2016 Rise Set
Actual Time
Civil Twilight
Nautical Twilight
Astronomical Twilight
Moon
Length of Visible Light
Length of Day
Tomorrow will be .
, % of the Moon is Illuminated

Today's Extremes

State Highs State Lows

Community

WunderPhotos

Upload Photos

1,935,689 photos uploaded!

WunderBlog® & News

Nearby

Air Quality

  Air Quality AQ Index Pollutant
Not available.

Snow Depth

Station Depth Elevation

Earthquake Activity

City Distance Mag. Time & Date
Minimum magnitude displayed is 2.5.

Coastal Water Temperatures

Place Temperature

Stations

Nearby Weather Stations

Station Location Temp. Windchill Dew Point Humidity Wind Precip. Elev Updated Type
                   

Watches & Warnings

There are currently no watches in effect.